Time;durP1;ratioP1;P1;durP2;ratioP2;P2;SDS_P1;SDS_P2;PMS_P1;PMS_P2;Temp;Humidity;BMP_temperature;BMP_pressure;BME280_temperature;BME280_humidity;BME280_pressure;Samples;Min_cycle;Max_cycle;Signal;HPM_P1;HPM_P2
2022/03/02 00:01:52;;;;;;;38.88;22.95;;;;;;;;;;5091999;28;20048;-72
2022/03/02 00:04:18;;;;;;;43.35;23.38;;;;;;;;;;5075723;28;20063;-72
2022/03/02 00:06:44;;;;;;;39.20;23.08;;;;;;;;;;5076031;28;20068;-71
2022/03/02 00:09:10;;;;;;;37.97;22.63;;;;;;;;;;5092551;28;20039;-71
2022/03/02 00:11:36;;;;;;;40.75;22.42;;;;;;;;;;5093183;28;20042;-71
2022/03/02 00:14:03;;;;;;;39.30;22.70;;;;;;;;;;5093054;28;20051;-71
2022/03/02 00:16:30;;;;;;;38.17;23.30;;;;;;;;;;5092109;28;20047;-71
2022/03/02 00:18:56;;;;;;;41.15;22.88;;;;;;;;;;5076045;28;20147;-71
2022/03/02 00:21:23;;;;;;;39.00;23.05;;;;;;;;;;5092293;28;20040;-71
2022/03/02 00:23:50;;;;;;;40.13;22.40;;;;;;;;;;5092410;28;20164;-71
2022/03/02 00:26:16;;;;;;;43.88;23.40;;;;;;;;;;5083285;28;20039;-71
2022/03/02 00:28:42;;;;;;;43.60;24.00;;;;;;;;;;5071741;28;20056;-71
2022/03/02 00:31:08;;;;;;;39.35;22.58;;;;;;;;;;5071352;28;20056;-71
2022/03/02 00:33:34;;;;;;;45.13;24.90;;;;;;;;;;5071867;28;20131;-71
2022/03/02 00:36:00;;;;;;;38.40;23.80;;;;;;;;;;5071866;28;20044;-71
2022/03/02 00:38:26;;;;;;;41.60;24.20;;;;;;;;;;5054388;28;20048;-71
2022/03/02 00:40:52;;;;;;;43.85;25.38;;;;;;;;;;5072056;28;20037;-71
2022/03/02 00:43:18;;;;;;;47.53;24.80;;;;;;;;;;5071836;28;20037;-71
2022/03/02 00:45:45;;;;;;;38.25;22.17;;;;;;;;;;5071045;28;20055;-71
2022/03/02 00:48:11;;;;;;;39.78;23.63;;;;;;;;;;5071926;28;20129;-71
2022/03/02 00:50:38;;;;;;;40.35;22.90;;;;;;;;;;5071537;28;20074;-71
2022/03/02 00:53:08;;;;;;;40.78;23.58;;;;;;;;;;5070879;28;20056;-71
2022/03/02 00:55:35;;;;;;;43.47;23.63;;;;;;;;;;5071724;28;20041;-71
2022/03/02 00:58:02;;;;;;;39.08;22.75;;;;;;;;;;5071134;28;20032;-71
2022/03/02 01:00:28;;;;;;;40.22;23.90;;;;;;;;;;5070631;28;20040;-71
2022/03/02 01:02:54;;;;;;;41.85;23.58;;;;;;;;;;5071414;28;20477;-71
2022/03/02 01:05:20;;;;;;;42.03;24.08;;;;;;;;;;5054566;28;20037;-71
2022/03/02 01:07:47;;;;;;;40.60;24.08;;;;;;;;;;5070939;28;20078;-71
2022/03/02 01:10:13;;;;;;;40.90;24.67;;;;;;;;;;5071191;28;20666;-71
2022/03/02 01:12:39;;;;;;;43.42;24.23;;;;;;;;;;5071122;28;20032;-71
2022/03/02 01:15:07;;;;;;;38.30;23.52;;;;;;;;;;5070657;28;20146;-71
2022/03/02 01:17:33;;;;;;;40.40;22.67;;;;;;;;;;5071206;28;20063;-71
2022/03/02 01:20:00;;;;;;;46.28;24.17;;;;;;;;;;5071309;28;20052;-71
2022/03/02 01:22:26;;;;;;;45.90;22.75;;;;;;;;;;5070266;28;20039;-71
2022/03/02 01:24:53;;;;;;;39.60;23.45;;;;;;;;;;5070813;28;20071;-71
2022/03/02 01:27:20;;;;;;;42.53;24.05;;;;;;;;;;5088966;28;20042;-71
2022/03/02 01:29:46;;;;;;;44.17;24.27;;;;;;;;;;5090637;28;20060;-71
2022/03/02 01:32:12;;;;;;;39.25;23.52;;;;;;;;;;5090991;28;20467;-71
2022/03/02 01:34:38;;;;;;;43.10;23.90;;;;;;;;;;5057825;28;20058;-71
2022/03/02 01:37:04;;;;;;;39.85;22.58;;;;;;;;;;5090715;28;20052;-71
2022/03/02 01:39:30;;;;;;;41.42;23.48;;;;;;;;;;5073047;28;20036;-71
2022/03/02 01:41:56;;;;;;;43.55;23.45;;;;;;;;;;5090824;28;20040;-71
2022/03/02 01:44:23;;;;;;;44.88;25.42;;;;;;;;;;5090735;28;20028;-71
2022/03/02 01:46:49;;;;;;;39.72;23.45;;;;;;;;;;5090347;28;20043;-71
2022/03/02 01:49:16;;;;;;;43.65;24.27;;;;;;;;;;5090819;28;20149;-71
2022/03/02 01:51:42;;;;;;;44.40;24.10;;;;;;;;;;5090699;28;20493;-71
2022/03/02 01:54:08;;;;;;;43.42;23.98;;;;;;;;;;5090180;28;20178;-71
2022/03/02 01:56:35;;;;;;;43.63;24.52;;;;;;;;;;5090448;28;20067;-71
2022/03/02 01:59:01;;;;;;;42.15;23.10;;;;;;;;;;5090409;28;20039;-71
2022/03/02 02:01:27;;;;;;;40.67;23.58;;;;;;;;;;5073066;28;20043;-71
2022/03/02 02:03:53;;;;;;;37.60;23.17;;;;;;;;;;5090389;28;20063;-71
2022/03/02 02:06:19;;;;;;;40.20;23.98;;;;;;;;;;5090451;28;20475;-71
2022/03/02 02:08:46;;;;;;;41.15;24.35;;;;;;;;;;5090153;28;20047;-71
2022/03/02 02:11:12;;;;;;;40.38;23.42;;;;;;;;;;5090344;28;20051;-71
2022/03/02 02:13:39;;;;;;;45.42;23.52;;;;;;;;;;5090596;28;20703;-71
2022/03/02 02:16:05;;;;;;;41.65;23.20;;;;;;;;;;5089447;28;20391;-71
2022/03/02 02:18:32;;;;;;;46.80;24.23;;;;;;;;;;5073416;28;20382;-71
2022/03/02 02:21:05;;;;;;;45.42;25.02;;;;;;;;;;5073477;28;20095;-71
2022/03/02 02:23:31;;;;;;;45.75;24.73;;;;;;;;;;5089658;28;20036;-71
2022/03/02 02:25:57;;;;;;;43.05;24.80;;;;;;;;;;5083271;28;20041;-71
2022/03/02 02:28:24;;;;;;;45.67;24.70;;;;;;;;;;5053300;28;20553;-71
2022/03/02 02:30:53;;;;;;;43.67;25.52;;;;;;;;;;5052740;28;20079;-71
2022/03/02 02:33:19;;;;;;;43.95;23.48;;;;;;;;;;5070031;28;20388;-71
2022/03/02 02:35:45;;;;;;;45.05;23.95;;;;;;;;;;5070127;28;20055;-71
2022/03/02 02:38:11;;;;;;;45.45;24.67;;;;;;;;;;5069472;28;20131;-71
2022/03/02 02:40:37;;;;;;;46.53;25.38;;;;;;;;;;5069821;28;20040;-71
2022/03/02 02:43:05;;;;;;;44.30;23.75;;;;;;;;;;5053239;28;20036;-71
2022/03/02 02:45:31;;;;;;;47.28;24.20;;;;;;;;;;5069209;28;20482;-71
2022/03/02 02:47:58;;;;;;;45.92;24.75;;;;;;;;;;5069884;28;20102;-71
2022/03/02 02:50:32;;;;;;;46.25;24.77;;;;;;;;;;5069948;28;20056;-71
2022/03/02 02:52:59;;;;;;;44.33;24.35;;;;;;;;;;5071836;28;20040;-71
2022/03/02 02:55:27;;;;;;;48.78;26.27;;;;;;;;;;5073634;28;20652;-71
2022/03/02 02:57:53;;;;;;;43.95;23.60;;;;;;;;;;5073803;28;20682;-71
2022/03/02 03:00:20;;;;;;;42.80;24.40;;;;;;;;;;5073252;28;20041;-71
2022/03/02 03:02:47;;;;;;;44.00;25.13;;;;;;;;;;5073858;28;20056;-71
2022/03/02 03:05:14;;;;;;;45.38;24.45;;;;;;;;;;5056791;28;20040;-71
2022/03/02 03:07:41;;;;;;;42.83;24.40;;;;;;;;;;5073001;28;20407;-71
2022/03/02 03:10:08;;;;;;;46.03;24.73;;;;;;;;;;5073714;28;20044;-71
2022/03/02 03:12:35;;;;;;;43.53;24.33;;;;;;;;;;5073848;28;20040;-71
2022/03/02 03:15:03;;;;;;;50.50;25.63;;;;;;;;;;5072599;28;20075;-71
2022/03/02 03:17:29;;;;;;;41.42;23.08;;;;;;;;;;5057024;28;20049;-71
2022/03/02 03:19:55;;;;;;;41.92;24.33;;;;;;;;;;5073253;28;20037;-71
2022/03/02 03:22:21;;;;;;;45.67;24.52;;;;;;;;;;5072709;28;20051;-71
2022/03/02 03:24:47;;;;;;;48.38;26.10;;;;;;;;;;5073233;28;20379;-71
2022/03/02 03:27:14;;;;;;;43.58;25.40;;;;;;;;;;5090804;28;20046;-71
2022/03/02 03:29:40;;;;;;;46.83;24.80;;;;;;;;;;5092868;28;20679;-71
2022/03/02 03:32:06;;;;;;;45.58;24.65;;;;;;;;;;5093442;28;20130;-71
2022/03/02 03:34:32;;;;;;;45.15;24.88;;;;;;;;;;5093355;28;20449;-71
2022/03/02 03:36:58;;;;;;;46.78;26.17;;;;;;;;;;5092506;28;20051;-71
2022/03/02 03:39:24;;;;;;;45.60;26.75;;;;;;;;;;5093134;28;20054;-71
2022/03/02 03:41:50;;;;;;;43.25;24.35;;;;;;;;;;5093178;28;20044;-71
2022/03/02 03:44:16;;;;;;;44.92;25.45;;;;;;;;;;5075724;28;20070;-72
2022/03/02 03:46:42;;;;;;;46.70;26.50;;;;;;;;;;5093262;28;20036;-72
2022/03/02 03:49:09;;;;;;;46.22;26.17;;;;;;;;;;5093404;28;20054;-72
2022/03/02 03:51:35;;;;;;;48.25;26.10;;;;;;;;;;5092544;28;20063;-72
2022/03/02 03:54:01;;;;;;;51.30;26.73;;;;;;;;;;5093115;28;20050;-72
2022/03/02 03:56:28;;;;;;;51.28;26.98;;;;;;;;;;5093123;28;20055;-72
2022/03/02 03:58:54;;;;;;;54.55;26.98;;;;;;;;;;5092132;28;20055;-72
2022/03/02 04:01:21;;;;;;;54.00;28.70;;;;;;;;;;5093101;28;20036;-72
2022/03/02 04:03:47;;;;;;;47.38;25.83;;;;;;;;;;5092251;28;20122;-72
2022/03/02 04:06:13;;;;;;;52.08;28.48;;;;;;;;;;5092293;28;20036;-72
2022/03/02 04:08:40;;;;;;;49.97;28.08;;;;;;;;;;5092893;28;20051;-72
2022/03/02 04:11:06;;;;;;;47.60;26.15;;;;;;;;;;5092957;28;20663;-72
2022/03/02 04:13:32;;;;;;;53.17;27.27;;;;;;;;;;5092004;28;20044;-72
2022/03/02 04:15:58;;;;;;;50.58;27.83;;;;;;;;;;5092479;28;20123;-72
2022/03/02 04:18:24;;;;;;;51.65;27.30;;;;;;;;;;5092304;28;20036;-72
2022/03/02 04:20:52;;;;;;;50.35;26.30;;;;;;;;;;5091675;28;20047;-72
2022/03/02 04:23:18;;;;;;;54.85;27.42;;;;;;;;;;5092274;28;20036;-72
2022/03/02 04:25:44;;;;;;;53.30;27.98;;;;;;;;;;5087291;28;20032;-72
2022/03/02 04:28:11;;;;;;;47.88;26.15;;;;;;;;;;5070808;28;20689;-72
2022/03/02 04:30:37;;;;;;;50.17;27.25;;;;;;;;;;5071971;28;20051;-72
2022/03/02 04:33:03;;;;;;;56.60;28.70;;;;;;;;;;5055355;28;20075;-72
2022/03/02 04:35:31;;;;;;;48.58;27.33;;;;;;;;;;5054669;28;20051;-72
2022/03/02 04:37:57;;;;;;;49.30;26.83;;;;;;;;;;5071703;28;20426;-72
2022/03/02 04:40:23;;;;;;;48.22;26.83;;;;;;;;;;5071738;28;20037;-72
2022/03/02 04:42:50;;;;;;;52.53;28.20;;;;;;;;;;5071168;28;20042;-72
2022/03/02 04:45:16;;;;;;;51.03;26.80;;;;;;;;;;5071904;28;20094;-72
2022/03/02 04:47:43;;;;;;;52.58;27.10;;;;;;;;;;5071596;28;20032;-72
2022/03/02 04:50:11;;;;;;;53.08;29.38;;;;;;;;;;5071247;28;20047;-72
2022/03/02 04:52:37;;;;;;;53.35;27.98;;;;;;;;;;5055158;28;20127;-72
2022/03/02 04:55:07;;;;;;;51.03;26.60;;;;;;;;;;5071538;28;20506;-72
2022/03/02 04:57:34;;;;;;;50.33;28.73;;;;;;;;;;5071058;28;20498;-72
2022/03/02 05:00:00;;;;;;;53.08;27.55;;;;;;;;;;5071171;28;20098;-72
2022/03/02 05:02:26;;;;;;;53.20;27.10;;;;;;;;;;5071474;28;20040;-72
2022/03/02 05:04:53;;;;;;;50.15;27.58;;;;;;;;;;5070860;28;20403;-72
2022/03/02 05:07:19;;;;;;;53.03;27.55;;;;;;;;;;5071567;28;20058;-72
2022/03/02 05:09:45;;;;;;;48.00;25.75;;;;;;;;;;5071263;28;20102;-72
2022/03/02 05:12:11;;;;;;;48.30;26.08;;;;;;;;;;5070671;28;20036;-72
2022/03/02 05:14:37;;;;;;;56.28;28.80;;;;;;;;;;5070576;28;20380;-72
2022/03/02 05:17:03;;;;;;;56.00;28.83;;;;;;;;;;5071315;28;20383;-71
2022/03/02 05:19:29;;;;;;;52.80;27.85;;;;;;;;;;5070463;28;20080;-71
2022/03/02 05:21:55;;;;;;;54.08;27.58;;;;;;;;;;5071365;28;20051;-71
2022/03/02 05:24:21;;;;;;;54.13;28.20;;;;;;;;;;5070991;28;20407;-71
2022/03/02 05:26:47;;;;;;;52.70;27.48;;;;;;;;;;5084032;28;20039;-71
2022/03/02 05:29:14;;;;;;;54.28;28.23;;;;;;;;;;5090917;28;20697;-71
2022/03/02 05:31:40;;;;;;;49.55;26.85;;;;;;;;;;5091027;28;20052;-71
2022/03/02 05:34:06;;;;;;;49.58;26.75;;;;;;;;;;5090563;28;20405;-71
2022/03/02 05:36:32;;;;;;;48.25;27.05;;;;;;;;;;5091199;28;20059;-71
2022/03/02 05:38:58;;;;;;;51.08;26.73;;;;;;;;;;5091119;28;20044;-71
2022/03/02 05:41:24;;;;;;;53.00;26.75;;;;;;;;;;5090363;28;20089;-71
2022/03/02 05:43:53;;;;;;;50.65;26.88;;;;;;;;;;5090799;28;20036;-71
2022/03/02 05:46:19;;;;;;;48.55;27.30;;;;;;;;;;5090823;28;20040;-71
2022/03/02 05:48:45;;;;;;;58.67;28.63;;;;;;;;;;5090381;28;20044;-71
2022/03/02 05:51:12;;;;;;;48.80;26.38;;;;;;;;;;5090504;28;20146;-71
2022/03/02 05:53:38;;;;;;;52.10;27.00;;;;;;;;;;5091207;28;20036;-71
2022/03/02 05:56:06;;;;;;;53.35;27.42;;;;;;;;;;5090439;28;20520;-71
2022/03/02 05:58:32;;;;;;;52.92;28.10;;;;;;;;;;5073175;28;20127;-71
2022/03/02 06:00:59;;;;;;;53.03;27.23;;;;;;;;;;5090680;28;20040;-71
2022/03/02 06:03:26;;;;;;;51.20;26.38;;;;;;;;;;5090497;28;20051;-71
2022/03/02 06:05:52;;;;;;;50.53;26.50;;;;;;;;;;5089773;28;20040;-71
2022/03/02 06:08:18;;;;;;;59.90;28.08;;;;;;;;;;5073821;28;20506;-71
2022/03/02 06:10:45;;;;;;;53.95;27.80;;;;;;;;;;5090616;28;20076;-71
2022/03/02 06:13:11;;;;;;;51.47;25.77;;;;;;;;;;5072947;28;20044;-71
2022/03/02 06:15:38;;;;;;;53.90;26.42;;;;;;;;;;5073375;28;20039;-71
2022/03/02 06:18:04;;;;;;;51.33;27.45;;;;;;;;;;5090130;28;20075;-71
2022/03/02 06:20:30;;;;;;;50.47;26.98;;;;;;;;;;5089595;28;20089;-71
2022/03/02 06:22:56;;;;;;;52.33;27.40;;;;;;;;;;5090148;28;20074;-71
2022/03/02 06:25:23;;;;;;;48.72;26.92;;;;;;;;;;5071379;28;20089;-71
2022/03/02 06:27:49;;;;;;;51.28;27.30;;;;;;;;;;5069205;28;20136;-71
2022/03/02 06:30:15;;;;;;;52.72;27.05;;;;;;;;;;5069778;28;20048;-71
2022/03/02 06:32:41;;;;;;;53.35;26.88;;;;;;;;;;5069952;28;20048;-71
2022/03/02 06:35:07;;;;;;;52.38;27.15;;;;;;;;;;5069338;28;20375;-71
2022/03/02 06:37:34;;;;;;;53.83;28.17;;;;;;;;;;5069932;28;20044;-71
2022/03/02 06:40:00;;;;;;;54.17;26.10;;;;;;;;;;5069947;28;20409;-71
2022/03/02 06:42:49;;;;;;;51.60;27.70;;;;;;;;;;5069295;28;20127;-71
2022/03/02 06:45:22;;;;;;;53.80;25.25;;;;;;;;;;5053032;28;20048;-71
2022/03/02 06:47:59;;;;;;;52.05;26.50;;;;;;;;;;5069600;28;20402;-71
2022/03/02 06:50:26;;;;;;;48.30;25.63;;;;;;;;;;5069820;28;20047;-71
2022/03/02 06:52:54;;;;;;;49.17;26.90;;;;;;;;;;5069738;28;20040;-71
2022/03/02 06:55:20;;;;;;;52.88;26.30;;;;;;;;;;5069503;28;20478;-71
2022/03/02 06:57:51;;;;;;;54.00;26.45;;;;;;;;;;5069347;28;20078;-71
2022/03/02 07:00:18;;;;;;;54.90;27.10;;;;;;;;;;5052817;28;20408;-71
2022/03/02 07:02:49;;;;;;;46.28;24.98;;;;;;;;;;5069571;28;20036;-71
2022/03/02 07:05:15;;;;;;;49.80;25.23;;;;;;;;;;5052956;28;20176;-71
2022/03/02 07:07:41;;;;;;;54.95;27.67;;;;;;;;;;5069754;28;20044;-71
2022/03/02 07:10:08;;;;;;;52.40;27.50;;;;;;;;;;5069585;28;20125;-71
2022/03/02 07:12:35;;;;;;;55.30;28.35;;;;;;;;;;5052875;28;20497;-71
2022/03/02 07:15:01;;;;;;;56.58;28.15;;;;;;;;;;5069538;28;20136;-71
2022/03/02 07:17:28;;;;;;;51.17;26.45;;;;;;;;;;5069409;28;20051;-71
2022/03/02 07:19:55;;;;;;;58.45;27.65;;;;;;;;;;5068875;28;20044;-71
2022/03/02 07:22:22;;;;;;;57.55;28.65;;;;;;;;;;5052441;28;20079;-71
2022/03/02 07:24:53;;;;;;;57.97;28.95;;;;;;;;;;5076075;28;20045;-70
2022/03/02 07:27:19;;;;;;;55.85;27.48;;;;;;;;;;5081384;28;20068;-70
2022/03/02 07:29:49;;;;;;;53.17;26.90;;;;;;;;;;5077085;28;20109;-70
2022/03/02 07:32:16;;;;;;;56.05;26.60;;;;;;;;;;5073512;28;20048;-71
2022/03/02 07:34:42;;;;;;;57.00;27.17;;;;;;;;;;5083897;28;20122;-70
2022/03/02 07:37:11;;;;;;;51.70;26.65;;;;;;;;;;5089163;28;20127;-70
2022/03/02 07:39:38;;;;;;;53.10;27.15;;;;;;;;;;5091600;28;20075;-73
2022/03/02 07:42:04;;;;;;;53.35;27.05;;;;;;;;;;5089046;28;20036;-70
2022/03/02 07:44:30;;;;;;;51.53;26.73;;;;;;;;;;5074364;28;20045;-69
2022/03/02 07:46:56;;;;;;;52.78;27.42;;;;;;;;;;5086743;28;20048;-70
2022/03/02 07:49:22;;;;;;;53.17;27.30;;;;;;;;;;5082654;28;20039;-69
2022/03/02 07:51:51;;;;;;;54.00;28.35;;;;;;;;;;5087263;28;20135;-73
2022/03/02 07:54:17;;;;;;;52.55;27.20;;;;;;;;;;5083346;28;20048;-71
2022/03/02 07:56:44;;;;;;;47.28;25.55;;;;;;;;;;5081274;28;20043;-70
2022/03/02 07:59:11;;;;;;;49.33;26.17;;;;;;;;;;5090423;28;20048;-70
2022/03/02 08:01:38;;;;;;;55.58;27.75;;;;;;;;;;5078819;28;20487;-69
2022/03/02 08:04:07;;;;;;;47.85;26.50;;;;;;;;;;5088441;28;20509;-71
2022/03/02 08:06:35;;;;;;;56.95;26.27;;;;;;;;;;5081245;28;20043;-72
2022/03/02 08:09:02;;;;;;;49.47;24.33;;;;;;;;;;5090291;28;20083;-71
2022/03/02 08:11:30;;;;;;;46.88;25.88;;;;;;;;;;5067319;28;20040;-71
2022/03/02 08:13:57;;;;;;;45.60;25.02;;;;;;;;;;5076363;28;20545;-71
2022/03/02 08:16:24;;;;;;;48.60;25.48;;;;;;;;;;5089587;28;20072;-71
2022/03/02 08:18:50;;;;;;;45.50;23.65;;;;;;;;;;5079380;28;20036;-71
2022/03/02 08:21:16;;;;;;;50.25;25.15;;;;;;;;;;5088954;28;20387;-71
2022/03/02 08:23:44;;;;;;;49.70;24.65;;;;;;;;;;5073946;28;20165;-71
2022/03/02 08:26:12;;;;;;;44.95;24.17;;;;;;;;;;5090551;28;20035;-71
2022/03/02 08:28:40;;;;;;;46.58;23.83;;;;;;;;;;5083193;28;20072;-71
2022/03/02 08:31:07;;;;;;;48.70;25.35;;;;;;;;;;5085913;28;20501;-71
2022/03/02 08:33:35;;;;;;;46.00;23.77;;;;;;;;;;5086389;28;20051;-71
2022/03/02 08:36:02;;;;;;;44.63;23.27;;;;;;;;;;5088377;28;20048;-71
2022/03/02 08:38:28;;;;;;;40.92;22.20;;;;;;;;;;5067620;28;20086;-72
2022/03/02 08:40:55;;;;;;;44.65;23.40;;;;;;;;;;5086976;28;20036;-71
2022/03/02 08:43:21;;;;;;;45.92;23.50;;;;;;;;;;5090525;28;20040;-71
2022/03/02 08:45:48;;;;;;;43.72;23.10;;;;;;;;;;5083775;28;20044;-71
2022/03/02 08:48:19;;;;;;;43.80;23.92;;;;;;;;;;5089561;28;20501;-72
2022/03/02 08:50:45;;;;;;;42.95;23.65;;;;;;;;;;5089297;28;20040;-72
2022/03/02 08:53:16;;;;;;;40.00;22.45;;;;;;;;;;5083604;28;20055;-72
2022/03/02 08:55:43;;;;;;;39.47;21.45;;;;;;;;;;5082849;28;20593;-72
2022/03/02 08:58:09;;;;;;;38.58;20.48;;;;;;;;;;5080200;28;20040;-72
2022/03/02 09:00:35;;;;;;;41.13;21.77;;;;;;;;;;5086811;28;20615;-72
2022/03/02 09:03:03;;;;;;;40.47;21.00;;;;;;;;;;5088627;28;20047;-72
2022/03/02 09:05:29;;;;;;;44.40;21.92;;;;;;;;;;5085242;28;20451;-72
2022/03/02 09:07:56;;;;;;;44.08;22.27;;;;;;;;;;5079145;28;20123;-72
2022/03/02 09:10:23;;;;;;;40.83;22.10;;;;;;;;;;5079414;28;20039;-72
2022/03/02 09:12:49;;;;;;;42.25;22.95;;;;;;;;;;5089339;28;20032;-72
2022/03/02 09:15:15;;;;;;;41.17;20.42;;;;;;;;;;5089671;28;20039;-72
2022/03/02 09:17:41;;;;;;;41.88;19.77;;;;;;;;;;5071916;28;20474;-72
2022/03/02 09:20:09;;;;;;;38.00;20.52;;;;;;;;;;5084488;28;20474;-72
2022/03/02 09:22:36;;;;;;;38.88;21.00;;;;;;;;;;5086747;28;20074;-72
2022/03/02 09:25:02;;;;;;;34.38;20.38;;;;;;;;;;5088758;28;20036;-72
2022/03/02 09:27:31;;;;;;;39.42;21.33;;;;;;;;;;5075040;28;20040;-72
2022/03/02 09:29:58;;;;;;;36.95;20.60;;;;;;;;;;5071273;28;20142;-71
2022/03/02 09:32:24;;;;;;;40.10;21.77;;;;;;;;;;5080487;28;20438;-71
2022/03/02 09:34:52;;;;;;;36.38;21.10;;;;;;;;;;5085454;28;20481;-72
2022/03/02 09:37:18;;;;;;;36.90;20.58;;;;;;;;;;5089550;28;20079;-72
2022/03/02 09:39:44;;;;;;;37.08;19.90;;;;;;;;;;5086860;28;20051;-72
2022/03/02 09:42:12;;;;;;;38.88;22.23;;;;;;;;;;5089002;28;20121;-72
2022/03/02 09:44:49;;;;;;;39.80;20.40;;;;;;;;;;5074590;28;20165;-73
2022/03/02 09:47:24;;;;;;;39.38;21.67;;;;;;;;;;5075978;28;20625;-72
2022/03/02 09:49:54;;;;;;;33.80;20.05;;;;;;;;;;5086728;28;20513;-72
2022/03/02 09:52:21;;;;;;;35.58;19.02;;;;;;;;;;5089593;28;20048;-72
2022/03/02 09:54:52;;;;;;;33.05;19.30;;;;;;;;;;5085102;28;20036;-72
2022/03/02 09:57:19;;;;;;;36.13;19.92;;;;;;;;;;5089722;28;20096;-72
2022/03/02 09:59:48;;;;;;;36.20;19.90;;;;;;;;;;5082326;28;20047;-71
2022/03/02 10:02:23;;;;;;;32.47;17.67;;;;;;;;;;5082115;28;20038;-71
2022/03/02 10:04:51;;;;;;;36.67;20.02;;;;;;;;;;5085200;28;20035;-72
2022/03/02 10:07:26;;;;;;;32.75;18.67;;;;;;;;;;5086272;28;20047;-70
2022/03/02 10:09:56;;;;;;;34.13;19.38;;;;;;;;;;5084791;28;20040;-70
2022/03/02 10:12:22;;;;;;;33.15;18.52;;;;;;;;;;5065547;28;20051;-71
2022/03/02 10:14:49;;;;;;;30.17;18.05;;;;;;;;;;5081731;28;20043;-69
2022/03/02 10:17:20;;;;;;;29.02;16.77;;;;;;;;;;5080839;28;20059;-69
2022/03/02 10:19:51;;;;;;;33.17;18.90;;;;;;;;;;5088956;28;20510;-68
2022/03/02 10:22:20;;;;;;;33.40;18.08;;;;;;;;;;5083079;28;20128;-70
2022/03/02 10:24:49;;;;;;;32.83;17.33;;;;;;;;;;5084586;28;20032;-70
2022/03/02 10:27:33;;;;;;;29.33;17.70;;;;;;;;;;5088088;28;20042;-69
2022/03/02 10:30:10;;;;;;;27.55;17.13;;;;;;;;;;5082513;28;20084;-69
2022/03/02 10:32:37;;;;;;;31.05;17.52;;;;;;;;;;5077182;28;20612;-70
2022/03/02 10:35:04;;;;;;;33.53;16.90;;;;;;;;;;5076880;28;20516;-69
2022/03/02 10:37:32;;;;;;;29.95;17.30;;;;;;;;;;5085403;28;20052;-69
2022/03/02 10:39:58;;;;;;;32.40;17.45;;;;;;;;;;5068897;28;20044;-69
2022/03/02 10:42:30;;;;;;;32.22;17.20;;;;;;;;;;5080358;28;20043;-69
2022/03/02 10:44:59;;;;;;;31.70;16.95;;;;;;;;;;5086224;28;20059;-69
2022/03/02 10:47:28;;;;;;;29.00;16.50;;;;;;;;;;5083358;28;20036;-70
2022/03/02 10:49:54;;;;;;;30.60;16.85;;;;;;;;;;5080233;28;20086;-69
2022/03/02 10:52:22;;;;;;;30.65;16.60;;;;;;;;;;5088426;28;20087;-70
2022/03/02 10:54:48;;;;;;;30.20;16.23;;;;;;;;;;5082236;28;20073;-69
2022/03/02 10:57:16;;;;;;;30.52;17.20;;;;;;;;;;5087965;28;20593;-69
2022/03/02 10:59:44;;;;;;;30.40;15.82;;;;;;;;;;5081726;28;20040;-69
2022/03/02 11:02:10;;;;;;;28.80;17.10;;;;;;;;;;5090102;28;20040;-69
2022/03/02 11:04:38;;;;;;;27.50;16.20;;;;;;;;;;5089365;28;20122;-69
2022/03/02 11:07:06;;;;;;;26.90;15.93;;;;;;;;;;5080982;28;21776;-68
2022/03/02 11:09:34;;;;;;;29.92;16.83;;;;;;;;;;5056781;28;20090;-70
2022/03/02 11:12:01;;;;;;;27.35;16.75;;;;;;;;;;5085271;28;20123;-69
2022/03/02 11:14:28;;;;;;;30.75;16.50;;;;;;;;;;5090741;28;20043;-70
2022/03/02 11:17:14;;;;;;;27.00;16.23;;;;;;;;;;5090916;28;20067;-70
2022/03/02 11:19:47;;;;;;;29.63;16.88;;;;;;;;;;5088821;28;20756;-69
2022/03/02 11:22:16;;;;;;;27.58;16.10;;;;;;;;;;5089252;28;20044;-69
2022/03/02 11:24:42;;;;;;;28.33;16.55;;;;;;;;;;5091368;28;20044;-69
2022/03/02 11:27:25;;;;;;;31.77;16.27;;;;;;;;;;5088959;28;20047;-69
2022/03/02 11:29:51;;;;;;;;;;;;;;;;;;5089286;28;20052;-65
2022/03/02 11:32:17;;;;;;;29.38;16.27;;;;;;;;;;5085958;28;19922;-67
2022/03/02 11:34:44;;;;;;;28.10;16.13;;;;;;;;;;5081606;28;20458;-68
2022/03/02 11:37:10;;;;;;;27.25;15.85;;;;;;;;;;5086271;28;20052;-68
2022/03/02 11:39:42;;;;;;;31.30;16.27;;;;;;;;;;5089495;28;20776;-69
2022/03/02 11:42:09;;;;;;;28.88;16.05;;;;;;;;;;5084940;28;20043;-68
2022/03/02 11:44:39;;;;;;;29.75;17.42;;;;;;;;;;5078666;28;20055;-68
2022/03/02 11:47:07;;;;;;;32.65;18.23;;;;;;;;;;5091124;28;20125;-68
2022/03/02 11:49:40;;;;;;;26.98;16.20;;;;;;;;;;5089892;28;20047;-68
2022/03/02 11:52:08;;;;;;;29.27;17.23;;;;;;;;;;5090541;28;20059;-68
2022/03/02 11:54:44;;;;;;;27.92;16.75;;;;;;;;;;5085730;28;20055;-68
2022/03/02 11:57:10;;;;;;;30.52;17.75;;;;;;;;;;5081680;28;20036;-68
2022/03/02 11:59:38;;;;;;;27.20;16.65;;;;;;;;;;5078291;28;20388;-69
2022/03/02 12:02:24;;;;;;;26.90;17.08;;;;;;;;;;5083826;28;20063;-69
2022/03/02 12:05:05;;;;;;;26.60;16.02;;;;;;;;;;5072486;28;20044;-69
2022/03/02 12:07:42;;;;;;;26.98;16.27;;;;;;;;;;5090123;28;20040;-68
2022/03/02 12:10:15;;;;;;;29.08;17.45;;;;;;;;;;5085955;28;20072;-69
2022/03/02 12:12:41;;;;;;;26.77;16.67;;;;;;;;;;5091467;28;20058;-69
2022/03/02 12:15:08;;;;;;;29.33;17.42;;;;;;;;;;5064718;28;20048;-68
2022/03/02 12:17:36;;;;;;;27.80;17.30;;;;;;;;;;5077959;28;20140;-68
2022/03/02 12:20:22;;;;;;;27.77;17.77;;;;;;;;;;5083385;28;20105;-69
2022/03/02 12:22:50;;;;;;;29.52;17.17;;;;;;;;;;5082048;28;20037;-69
2022/03/02 12:25:17;;;;;;;27.60;17.40;;;;;;;;;;5086989;28;20422;-68
2022/03/02 12:27:49;;;;;;;29.15;17.92;;;;;;;;;;5090321;28;20044;-69
2022/03/02 12:30:16;;;;;;;29.17;18.08;;;;;;;;;;5091473;28;20495;-69
2022/03/02 12:32:42;;;;;;;28.20;16.88;;;;;;;;;;5092973;28;20040;-70
2022/03/02 12:35:09;;;;;;;25.33;16.20;;;;;;;;;;5090470;28;20499;-69
2022/03/02 12:37:36;;;;;;;27.33;15.90;;;;;;;;;;5089424;28;20087;-70
2022/03/02 12:40:05;;;;;;;27.75;16.60;;;;;;;;;;5087873;28;20044;-69
2022/03/02 12:42:31;;;;;;;29.27;17.15;;;;;;;;;;5084470;28;20040;-69
2022/03/02 12:44:57;;;;;;;27.48;16.67;;;;;;;;;;5055937;28;20041;-69
2022/03/02 12:47:29;;;;;;;26.20;16.85;;;;;;;;;;5084209;28;20032;-69
2022/03/02 12:49:55;;;;;;;27.65;16.67;;;;;;;;;;5087914;28;20044;-69
2022/03/02 12:52:22;;;;;;;26.77;16.83;;;;;;;;;;5089484;28;20623;-70
2022/03/02 12:54:50;;;;;;;29.90;17.85;;;;;;;;;;5087891;28;20048;-70
2022/03/02 12:57:18;;;;;;;25.70;15.38;;;;;;;;;;5087626;28;20053;-70
2022/03/02 12:59:44;;;;;;;28.60;16.58;;;;;;;;;;5079326;28;20044;-70
2022/03/02 13:02:11;;;;;;;26.40;16.33;;;;;;;;;;5080849;28;20406;-70
2022/03/02 13:04:56;;;;;;;24.80;15.80;;;;;;;;;;5090401;28;20048;-71
2022/03/02 13:07:28;;;;;;;22.50;15.70;;;;;;;;;;5088760;28;20040;-70
2022/03/02 13:09:55;;;;;;;23.48;15.40;;;;;;;;;;5093686;28;20044;-70
2022/03/02 13:12:40;;;;;;;26.75;16.75;;;;;;;;;;5069573;28;20047;-70
2022/03/02 13:15:18;;;;;;;27.35;16.35;;;;;;;;;;5086817;28;20071;-70
2022/03/02 13:17:45;;;;;;;24.80;15.07;;;;;;;;;;5086504;28;20101;-69
2022/03/02 13:20:19;;;;;;;24.52;15.63;;;;;;;;;;5081034;28;20105;-70
2022/03/02 13:22:46;;;;;;;27.27;16.85;;;;;;;;;;5078058;28;20114;-70
2022/03/02 13:25:14;;;;;;;23.20;15.38;;;;;;;;;;5081504;28;20047;-67
2022/03/02 13:28:05;;;;;;;24.33;15.93;;;;;;;;;;5077194;28;20040;-69
2022/03/02 13:30:31;;;;;;;24.48;15.98;;;;;;;;;;5084337;28;20116;-69
2022/03/02 13:33:02;;;;;;;25.10;16.02;;;;;;;;;;5083156;28;20051;-69
2022/03/02 13:35:30;;;;;;;26.27;16.50;;;;;;;;;;5077172;28;20036;-70
2022/03/02 13:37:58;;;;;;;21.63;14.60;;;;;;;;;;5081234;28;20048;-71
2022/03/02 13:40:30;;;;;;;23.83;15.80;;;;;;;;;;5086335;28;20094;-71
2022/03/02 13:43:02;;;;;;;22.20;15.38;;;;;;;;;;5069751;28;20139;-70
2022/03/02 13:45:28;;;;;;;21.20;14.50;;;;;;;;;;5069810;28;20051;-69
2022/03/02 13:48:13;;;;;;;24.70;15.10;;;;;;;;;;5076482;28;20476;-69
2022/03/02 13:50:58;;;;;;;19.80;13.90;;;;;;;;;;5080704;28;20085;-69
2022/03/02 13:53:40;;;;;;;19.80;13.85;;;;;;;;;;5081499;28;20062;-71
2022/03/02 13:56:11;;;;;;;22.05;14.15;;;;;;;;;;5084219;28;20048;-70
2022/03/02 13:58:38;;;;;;;26.45;16.75;;;;;;;;;;5087273;28;20136;-70
2022/03/02 14:01:13;;;;;;;24.17;15.32;;;;;;;;;;5085300;28;20067;-69
2022/03/02 14:03:43;;;;;;;23.42;15.00;;;;;;;;;;5081808;28;20422;-68
2022/03/02 14:06:10;;;;;;;21.30;14.48;;;;;;;;;;5090644;28;20115;-69
2022/03/02 14:08:47;;;;;;;24.88;15.23;;;;;;;;;;5086227;28;20049;-69
2022/03/02 14:11:31;;;;;;;22.42;14.73;;;;;;;;;;5090148;28;20043;-70
2022/03/02 14:13:57;;;;;;;22.23;15.40;;;;;;;;;;5082898;28;20052;-71
2022/03/02 14:16:23;;;;;;;22.38;14.85;;;;;;;;;;5084449;28;20047;-69
2022/03/02 14:19:06;;;;;;;23.02;15.13;;;;;;;;;;5076499;28;20046;-71
2022/03/02 14:21:32;;;;;;;20.33;14.45;;;;;;;;;;5085242;28;20527;-71
2022/03/02 14:24:21;;;;;;;20.67;15.05;;;;;;;;;;5088799;28;20036;-71